sensor_id;sensor_type;location;lat;lon;timestamp;P1;durP1;ratioP1;P2;durP2;ratioP2
52708;SDS011;38606;52.986;6.980;2023-03-14T00:02:16;24.02;;;3.90;;
52708;SDS011;38606;52.986;6.980;2023-03-14T00:04:42;25.98;;;4.80;;
52708;SDS011;38606;52.986;6.980;2023-03-14T00:07:07;21.40;;;4.13;;
52708;SDS011;38606;52.986;6.980;2023-03-14T00:09:36;26.35;;;4.38;;
52708;SDS011;38606;52.986;6.980;2023-03-14T00:12:02;27.88;;;3.67;;
52708;SDS011;38606;52.986;6.980;2023-03-14T00:14:28;22.48;;;3.78;;
52708;SDS011;38606;52.986;6.980;2023-03-14T00:16:55;25.90;;;4.20;;
52708;SDS011;38606;52.986;6.980;2023-03-14T00:19:21;21.58;;;4.15;;
52708;SDS011;38606;52.986;6.980;2023-03-14T00:21:47;22.27;;;4.03;;
52708;SDS011;38606;52.986;6.980;2023-03-14T00:24:13;23.58;;;4.57;;
52708;SDS011;38606;52.986;6.980;2023-03-14T00:26:38;20.95;;;3.83;;
52708;SDS011;38606;52.986;6.980;2023-03-14T00:29:04;31.60;;;4.60;;
52708;SDS011;38606;52.986;6.980;2023-03-14T00:31:30;21.52;;;3.80;;
52708;SDS011;38606;52.986;6.980;2023-03-14T00:33:56;21.33;;;4.00;;
52708;SDS011;38606;52.986;6.980;2023-03-14T00:36:22;26.73;;;3.90;;
52708;SDS011;38606;52.986;6.980;2023-03-14T00:38:49;27.23;;;3.95;;
52708;SDS011;38606;52.986;6.980;2023-03-14T00:41:20;31.30;;;4.40;;
52708;SDS011;38606;52.986;6.980;2023-03-14T00:43:47;25.75;;;4.43;;
52708;SDS011;38606;52.986;6.980;2023-03-14T00:46:13;22.77;;;4.07;;
52708;SDS011;38606;52.986;6.980;2023-03-14T00:48:39;24.65;;;3.70;;
52708;SDS011;38606;52.986;6.980;2023-03-14T00:51:06;18.33;;;4.03;;
52708;SDS011;38606;52.986;6.980;2023-03-14T00:53:36;22.20;;;4.40;;
52708;SDS011;38606;52.986;6.980;2023-03-14T00:56:03;16.77;;;4.40;;
52708;SDS011;38606;52.986;6.980;2023-03-14T00:58:31;14.40;;;3.95;;
52708;SDS011;38606;52.986;6.980;2023-03-14T01:00:57;14.07;;;3.85;;
52708;SDS011;38606;52.986;6.980;2023-03-14T01:03:23;16.80;;;3.78;;
52708;SDS011;38606;52.986;6.980;2023-03-14T01:05:49;19.10;;;4.32;;
52708;SDS011;38606;52.986;6.980;2023-03-14T01:08:16;16.95;;;4.10;;
52708;SDS011;38606;52.986;6.980;2023-03-14T01:10:42;16.73;;;4.25;;
52708;SDS011;38606;52.986;6.980;2023-03-14T01:13:09;17.60;;;4.32;;
52708;SDS011;38606;52.986;6.980;2023-03-14T01:15:35;14.27;;;4.60;;
52708;SDS011;38606;52.986;6.980;2023-03-14T01:18:02;13.23;;;4.32;;
52708;SDS011;38606;52.986;6.980;2023-03-14T01:20:28;16.05;;;4.22;;
52708;SDS011;38606;52.986;6.980;2023-03-14T01:22:54;12.27;;;4.32;;
52708;SDS011;38606;52.986;6.980;2023-03-14T01:25:20;13.95;;;4.25;;
52708;SDS011;38606;52.986;6.980;2023-03-14T01:27:45;13.18;;;3.97;;
52708;SDS011;38606;52.986;6.980;2023-03-14T01:30:11;18.13;;;4.03;;
52708;SDS011;38606;52.986;6.980;2023-03-14T01:32:38;15.65;;;3.95;;
52708;SDS011;38606;52.986;6.980;2023-03-14T01:35:04;18.67;;;3.90;;
52708;SDS011;38606;52.986;6.980;2023-03-14T01:37:30;12.35;;;3.72;;
52708;SDS011;38606;52.986;6.980;2023-03-14T01:39:56;17.38;;;4.22;;
52708;SDS011;38606;52.986;6.980;2023-03-14T01:42:21;11.15;;;3.60;;
52708;SDS011;38606;52.986;6.980;2023-03-14T01:44:52;12.50;;;3.70;;
52708;SDS011;38606;52.986;6.980;2023-03-14T01:47:22;14.85;;;4.25;;
52708;SDS011;38606;52.986;6.980;2023-03-14T01:49:54;15.27;;;3.88;;
52708;SDS011;38606;52.986;6.980;2023-03-14T01:52:27;13.00;;;3.33;;
52708;SDS011;38606;52.986;6.980;2023-03-14T01:54:59;15.98;;;4.50;;
52708;SDS011;38606;52.986;6.980;2023-03-14T01:57:39;16.27;;;4.40;;
52708;SDS011;38606;52.986;6.980;2023-03-14T02:00:11;13.82;;;3.88;;
52708;SDS011;38606;52.986;6.980;2023-03-14T02:02:40;20.13;;;3.72;;
52708;SDS011;38606;52.986;6.980;2023-03-14T02:05:16;17.15;;;3.38;;
52708;SDS011;38606;52.986;6.980;2023-03-14T02:07:46;18.40;;;3.92;;
52708;SDS011;38606;52.986;6.980;2023-03-14T02:10:18;15.95;;;3.33;;
52708;SDS011;38606;52.986;6.980;2023-03-14T02:12:47;19.30;;;4.22;;
52708;SDS011;38606;52.986;6.980;2023-03-14T02:15:14;14.80;;;3.78;;
52708;SDS011;38606;52.986;6.980;2023-03-14T02:17:40;14.65;;;3.60;;
52708;SDS011;38606;52.986;6.980;2023-03-14T02:20:10;17.73;;;3.50;;
52708;SDS011;38606;52.986;6.980;2023-03-14T02:22:40;19.45;;;3.25;;
52708;SDS011;38606;52.986;6.980;2023-03-14T02:28:11;23.50;;;3.58;;
52708;SDS011;38606;52.986;6.980;2023-03-14T02:30:38;20.67;;;3.50;;
52708;SDS011;38606;52.986;6.980;2023-03-14T02:33:05;19.33;;;3.20;;
52708;SDS011;38606;52.986;6.980;2023-03-14T02:35:46;16.55;;;3.40;;
52708;SDS011;38606;52.986;6.980;2023-03-14T02:38:25;20.25;;;3.60;;
52708;SDS011;38606;52.986;6.980;2023-03-14T02:41:11;22.17;;;4.13;;
52708;SDS011;38606;52.986;6.980;2023-03-14T02:43:37;15.73;;;3.45;;
52708;SDS011;38606;52.986;6.980;2023-03-14T02:46:02;20.02;;;3.83;;
52708;SDS011;38606;52.986;6.980;2023-03-14T02:48:31;16.40;;;4.20;;
52708;SDS011;38606;52.986;6.980;2023-03-14T02:51:02;16.85;;;3.60;;
52708;SDS011;38606;52.986;6.980;2023-03-14T02:53:30;17.85;;;3.67;;
52708;SDS011;38606;52.986;6.980;2023-03-14T02:55:57;23.65;;;4.82;;
52708;SDS011;38606;52.986;6.980;2023-03-14T02:58:23;18.50;;;4.20;;
52708;SDS011;38606;52.986;6.980;2023-03-14T03:00:49;16.17;;;3.67;;
52708;SDS011;38606;52.986;6.980;2023-03-14T03:03:15;16.17;;;3.65;;
52708;SDS011;38606;52.986;6.980;2023-03-14T03:05:41;14.82;;;3.35;;
52708;SDS011;38606;52.986;6.980;2023-03-14T03:08:10;16.88;;;3.67;;
52708;SDS011;38606;52.986;6.980;2023-03-14T03:10:36;17.30;;;4.63;;
52708;SDS011;38606;52.986;6.980;2023-03-14T03:13:01;13.27;;;3.55;;
52708;SDS011;38606;52.986;6.980;2023-03-14T03:15:27;13.65;;;3.10;;
52708;SDS011;38606;52.986;6.980;2023-03-14T03:17:53;13.52;;;3.33;;
52708;SDS011;38606;52.986;6.980;2023-03-14T03:20:19;15.02;;;3.05;;
52708;SDS011;38606;52.986;6.980;2023-03-14T03:22:44;19.52;;;3.92;;
52708;SDS011;38606;52.986;6.980;2023-03-14T03:25:10;15.40;;;3.40;;
52708;SDS011;38606;52.986;6.980;2023-03-14T03:27:36;15.50;;;3.03;;
52708;SDS011;38606;52.986;6.980;2023-03-14T03:30:04;11.57;;;2.85;;
52708;SDS011;38606;52.986;6.980;2023-03-14T03:32:31;9.18;;;2.67;;
52708;SDS011;38606;52.986;6.980;2023-03-14T03:34:57;10.10;;;2.63;;
52708;SDS011;38606;52.986;6.980;2023-03-14T03:37:22;12.60;;;2.88;;
52708;SDS011;38606;52.986;6.980;2023-03-14T03:39:51;12.63;;;3.10;;
52708;SDS011;38606;52.986;6.980;2023-03-14T03:42:17;6.68;;;2.35;;
52708;SDS011;38606;52.986;6.980;2023-03-14T03:44:43;9.35;;;3.03;;
52708;SDS011;38606;52.986;6.980;2023-03-14T03:47:09;10.65;;;3.00;;
52708;SDS011;38606;52.986;6.980;2023-03-14T03:49:35;10.02;;;3.10;;
52708;SDS011;38606;52.986;6.980;2023-03-14T03:52:01;10.82;;;2.85;;
52708;SDS011;38606;52.986;6.980;2023-03-14T03:54:27;11.85;;;2.85;;
52708;SDS011;38606;52.986;6.980;2023-03-14T03:56:54;13.77;;;3.20;;
52708;SDS011;38606;52.986;6.980;2023-03-14T03:59:20;13.80;;;3.00;;
52708;SDS011;38606;52.986;6.980;2023-03-14T04:01:46;15.68;;;2.95;;
52708;SDS011;38606;52.986;6.980;2023-03-14T04:04:12;11.02;;;3.10;;
52708;SDS011;38606;52.986;6.980;2023-03-14T04:06:38;9.45;;;3.30;;
52708;SDS011;38606;52.986;6.980;2023-03-14T04:09:05;12.05;;;3.28;;
52708;SDS011;38606;52.986;6.980;2023-03-14T04:11:31;11.38;;;3.35;;
52708;SDS011;38606;52.986;6.980;2023-03-14T04:13:56;11.68;;;3.15;;
52708;SDS011;38606;52.986;6.980;2023-03-14T04:16:23;13.85;;;3.58;;
52708;SDS011;38606;52.986;6.980;2023-03-14T04:18:50;15.55;;;3.97;;
52708;SDS011;38606;52.986;6.980;2023-03-14T04:21:16;17.35;;;3.90;;
52708;SDS011;38606;52.986;6.980;2023-03-14T04:23:42;9.60;;;3.13;;
52708;SDS011;38606;52.986;6.980;2023-03-14T04:26:08;13.25;;;3.33;;
52708;SDS011;38606;52.986;6.980;2023-03-14T04:28:34;13.07;;;3.65;;
52708;SDS011;38606;52.986;6.980;2023-03-14T04:31:11;11.88;;;3.85;;
52708;SDS011;38606;52.986;6.980;2023-03-14T04:33:41;16.50;;;4.43;;
52708;SDS011;38606;52.986;6.980;2023-03-14T04:36:08;18.83;;;4.72;;
52708;SDS011;38606;52.986;6.980;2023-03-14T04:38:34;14.20;;;3.67;;
52708;SDS011;38606;52.986;6.980;2023-03-14T04:41:00;15.93;;;3.33;;
52708;SDS011;38606;52.986;6.980;2023-03-14T04:43:26;13.68;;;3.58;;
52708;SDS011;38606;52.986;6.980;2023-03-14T04:45:55;19.80;;;3.78;;
52708;SDS011;38606;52.986;6.980;2023-03-14T04:48:22;12.45;;;3.22;;
52708;SDS011;38606;52.986;6.980;2023-03-14T04:50:49;14.07;;;3.03;;
52708;SDS011;38606;52.986;6.980;2023-03-14T04:53:15;14.63;;;2.95;;
52708;SDS011;38606;52.986;6.980;2023-03-14T04:55:41;13.85;;;3.38;;
52708;SDS011;38606;52.986;6.980;2023-03-14T04:58:07;11.77;;;2.78;;
52708;SDS011;38606;52.986;6.980;2023-03-14T05:00:33;11.30;;;3.03;;
52708;SDS011;38606;52.986;6.980;2023-03-14T05:02:59;14.05;;;3.58;;
52708;SDS011;38606;52.986;6.980;2023-03-14T05:05:25;12.07;;;3.22;;
52708;SDS011;38606;52.986;6.980;2023-03-14T05:07:50;11.40;;;3.90;;
52708;SDS011;38606;52.986;6.980;2023-03-14T05:10:16;11.35;;;3.97;;
52708;SDS011;38606;52.986;6.980;2023-03-14T05:12:42;12.98;;;3.85;;
52708;SDS011;38606;52.986;6.980;2023-03-14T05:15:08;11.95;;;4.30;;
52708;SDS011;38606;52.986;6.980;2023-03-14T05:17:34;13.15;;;4.40;;
52708;SDS011;38606;52.986;6.980;2023-03-14T05:20:00;9.13;;;4.18;;
52708;SDS011;38606;52.986;6.980;2023-03-14T05:22:26;11.18;;;4.82;;
52708;SDS011;38606;52.986;6.980;2023-03-14T05:24:52;14.43;;;4.18;;
52708;SDS011;38606;52.986;6.980;2023-03-14T05:27:21;13.63;;;4.22;;
52708;SDS011;38606;52.986;6.980;2023-03-14T05:29:47;11.82;;;4.90;;
52708;SDS011;38606;52.986;6.980;2023-03-14T05:32:13;14.55;;;4.60;;
52708;SDS011;38606;52.986;6.980;2023-03-14T05:34:39;14.25;;;4.20;;
52708;SDS011;38606;52.986;6.980;2023-03-14T05:37:04;11.43;;;4.88;;
52708;SDS011;38606;52.986;6.980;2023-03-14T05:39:30;11.15;;;4.53;;
52708;SDS011;38606;52.986;6.980;2023-03-14T05:41:56;13.95;;;4.57;;
52708;SDS011;38606;52.986;6.980;2023-03-14T05:44:22;14.40;;;4.97;;
52708;SDS011;38606;52.986;6.980;2023-03-14T05:46:47;11.50;;;4.47;;
52708;SDS011;38606;52.986;6.980;2023-03-14T05:49:13;15.35;;;4.35;;
52708;SDS011;38606;52.986;6.980;2023-03-14T05:51:39;10.75;;;4.50;;
52708;SDS011;38606;52.986;6.980;2023-03-14T05:54:05;13.85;;;4.70;;
52708;SDS011;38606;52.986;6.980;2023-03-14T05:56:31;14.13;;;4.40;;
52708;SDS011;38606;52.986;6.980;2023-03-14T05:58:57;12.95;;;4.32;;
52708;SDS011;38606;52.986;6.980;2023-03-14T06:01:22;14.18;;;3.97;;
52708;SDS011;38606;52.986;6.980;2023-03-14T06:03:48;13.77;;;4.85;;
52708;SDS011;38606;52.986;6.980;2023-03-14T06:06:14;16.67;;;5.18;;
52708;SDS011;38606;52.986;6.980;2023-03-14T06:08:41;14.30;;;4.68;;
52708;SDS011;38606;52.986;6.980;2023-03-14T06:11:07;14.38;;;4.40;;
52708;SDS011;38606;52.986;6.980;2023-03-14T06:13:34;11.60;;;3.90;;
52708;SDS011;38606;52.986;6.980;2023-03-14T06:16:00;15.55;;;4.50;;
52708;SDS011;38606;52.986;6.980;2023-03-14T06:18:25;20.60;;;4.55;;
52708;SDS011;38606;52.986;6.980;2023-03-14T06:20:54;11.85;;;4.13;;
52708;SDS011;38606;52.986;6.980;2023-03-14T06:23:21;14.98;;;4.18;;
52708;SDS011;38606;52.986;6.980;2023-03-14T06:25:47;17.90;;;5.20;;
52708;SDS011;38606;52.986;6.980;2023-03-14T06:28:13;14.48;;;3.95;;
52708;SDS011;38606;52.986;6.980;2023-03-14T06:30:39;11.75;;;4.18;;
52708;SDS011;38606;52.986;6.980;2023-03-14T06:33:05;19.77;;;4.18;;
52708;SDS011;38606;52.986;6.980;2023-03-14T06:35:30;8.82;;;3.67;;
52708;SDS011;38606;52.986;6.980;2023-03-14T06:37:56;13.57;;;4.60;;
52708;SDS011;38606;52.986;6.980;2023-03-14T06:40:22;11.05;;;4.05;;
52708;SDS011;38606;52.986;6.980;2023-03-14T06:42:48;13.98;;;5.43;;
52708;SDS011;38606;52.986;6.980;2023-03-14T06:45:13;9.20;;;3.92;;
52708;SDS011;38606;52.986;6.980;2023-03-14T06:47:39;10.80;;;4.20;;
52708;SDS011;38606;52.986;6.980;2023-03-14T06:50:06;16.00;;;3.50;;
52708;SDS011;38606;52.986;6.980;2023-03-14T06:52:32;13.40;;;3.90;;
52708;SDS011;38606;52.986;6.980;2023-03-14T06:54:58;16.88;;;4.15;;
52708;SDS011;38606;52.986;6.980;2023-03-14T06:57:24;16.00;;;4.35;;
52708;SDS011;38606;52.986;6.980;2023-03-14T06:59:49;13.90;;;5.53;;
52708;SDS011;38606;52.986;6.980;2023-03-14T07:02:15;14.15;;;3.80;;
52708;SDS011;38606;52.986;6.980;2023-03-14T07:04:41;10.73;;;3.60;;
52708;SDS011;38606;52.986;6.980;2023-03-14T07:07:07;9.25;;;3.85;;
52708;SDS011;38606;52.986;6.980;2023-03-14T07:09:33;8.63;;;3.30;;
52708;SDS011;38606;52.986;6.980;2023-03-14T07:11:59;11.13;;;3.30;;
52708;SDS011;38606;52.986;6.980;2023-03-14T07:14:25;14.02;;;3.50;;
52708;SDS011;38606;52.986;6.980;2023-03-14T07:16:51;8.50;;;3.67;;
52708;SDS011;38606;52.986;6.980;2023-03-14T07:19:17;13.00;;;3.92;;
52708;SDS011;38606;52.986;6.980;2023-03-14T07:21:43;9.48;;;3.60;;
52708;SDS011;38606;52.986;6.980;2023-03-14T07:24:08;13.15;;;4.22;;
52708;SDS011;38606;52.986;6.980;2023-03-14T07:26:35;10.68;;;3.67;;
52708;SDS011;38606;52.986;6.980;2023-03-14T07:29:00;15.73;;;3.75;;
52708;SDS011;38606;52.986;6.980;2023-03-14T07:31:28;6.72;;;1.90;;
52708;SDS011;38606;52.986;6.980;2023-03-14T07:33:54;6.25;;;1.20;;
52708;SDS011;38606;52.986;6.980;2023-03-14T07:36:20;5.43;;;0.70;;
52708;SDS011;38606;52.986;6.980;2023-03-14T07:38:46;9.65;;;1.10;;
52708;SDS011;38606;52.986;6.980;2023-03-14T07:41:12;10.20;;;1.30;;
52708;SDS011;38606;52.986;6.980;2023-03-14T07:43:38;7.32;;;1.20;;
52708;SDS011;38606;52.986;6.980;2023-03-14T07:46:03;8.70;;;1.33;;
52708;SDS011;38606;52.986;6.980;2023-03-14T07:48:29;10.60;;;1.85;;
52708;SDS011;38606;52.986;6.980;2023-03-14T07:50:55;11.55;;;1.48;;
52708;SDS011;38606;52.986;6.980;2023-03-14T07:53:21;10.75;;;1.48;;
52708;SDS011;38606;52.986;6.980;2023-03-14T07:55:48;8.45;;;1.30;;
52708;SDS011;38606;52.986;6.980;2023-03-14T07:58:15;11.63;;;1.38;;
52708;SDS011;38606;52.986;6.980;2023-03-14T08:00:41;9.43;;;1.35;;
52708;SDS011;38606;52.986;6.980;2023-03-14T08:03:08;7.75;;;1.60;;
52708;SDS011;38606;52.986;6.980;2023-03-14T08:05:34;10.10;;;1.50;;
52708;SDS011;38606;52.986;6.980;2023-03-14T08:08:01;4.78;;;0.77;;
52708;SDS011;38606;52.986;6.980;2023-03-14T08:10:27;4.40;;;0.70;;
52708;SDS011;38606;52.986;6.980;2023-03-14T08:12:54;7.57;;;0.80;;
52708;SDS011;38606;52.986;6.980;2023-03-14T08:15:21;5.10;;;0.73;;
52708;SDS011;38606;52.986;6.980;2023-03-14T08:17:47;4.03;;;0.50;;
52708;SDS011;38606;52.986;6.980;2023-03-14T08:20:23;4.07;;;0.35;;
52708;SDS011;38606;52.986;6.980;2023-03-14T08:22:50;2.85;;;0.82;;
52708;SDS011;38606;52.986;6.980;2023-03-14T08:25:17;5.05;;;0.50;;
52708;SDS011;38606;52.986;6.980;2023-03-14T08:27:43;4.18;;;0.47;;
52708;SDS011;38606;52.986;6.980;2023-03-14T08:30:10;4.13;;;0.60;;
52708;SDS011;38606;52.986;6.980;2023-03-14T08:32:37;8.15;;;0.68;;
52708;SDS011;38606;52.986;6.980;2023-03-14T08:35:04;1.73;;;0.40;;
52708;SDS011;38606;52.986;6.980;2023-03-14T08:37:31;5.68;;;0.60;;
52708;SDS011;38606;52.986;6.980;2023-03-14T08:39:57;4.47;;;0.50;;
52708;SDS011;38606;52.986;6.980;2023-03-14T08:42:23;2.50;;;0.50;;
52708;SDS011;38606;52.986;6.980;2023-03-14T08:44:50;3.85;;;0.55;;
52708;SDS011;38606;52.986;6.980;2023-03-14T08:47:16;1.92;;;0.55;;
52708;SDS011;38606;52.986;6.980;2023-03-14T08:49:42;5.00;;;0.60;;
52708;SDS011;38606;52.986;6.980;2023-03-14T08:52:08;7.38;;;0.60;;
52708;SDS011;38606;52.986;6.980;2023-03-14T08:54:34;1.70;;;0.57;;
52708;SDS011;38606;52.986;6.980;2023-03-14T08:57:00;3.50;;;0.60;;
52708;SDS011;38606;52.986;6.980;2023-03-14T08:59:25;5.00;;;0.60;;
52708;SDS011;38606;52.986;6.980;2023-03-14T09:01:51;3.22;;;0.60;;
52708;SDS011;38606;52.986;6.980;2023-03-14T09:04:17;5.75;;;0.73;;
52708;SDS011;38606;52.986;6.980;2023-03-14T09:06:43;2.53;;;0.68;;
52708;SDS011;38606;52.986;6.980;2023-03-14T09:09:08;4.72;;;0.75;;
52708;SDS011;38606;52.986;6.980;2023-03-14T09:11:34;3.53;;;0.50;;
52708;SDS011;38606;52.986;6.980;2023-03-14T09:14:00;2.03;;;0.50;;
52708;SDS011;38606;52.986;6.980;2023-03-14T09:16:26;3.92;;;0.70;;
52708;SDS011;38606;52.986;6.980;2023-03-14T09:18:52;3.38;;;0.60;;
52708;SDS011;38606;52.986;6.980;2023-03-14T09:21:22;5.97;;;0.60;;
52708;SDS011;38606;52.986;6.980;2023-03-14T09:23:48;4.30;;;0.52;;
52708;SDS011;38606;52.986;6.980;2023-03-14T09:26:14;5.93;;;0.80;;
52708;SDS011;38606;52.986;6.980;2023-03-14T09:28:39;7.05;;;0.70;;
52708;SDS011;38606;52.986;6.980;2023-03-14T09:31:06;8.65;;;0.90;;
52708;SDS011;38606;52.986;6.980;2023-03-14T09:33:36;5.15;;;1.17;;
52708;SDS011;38606;52.986;6.980;2023-03-14T09:36:02;7.13;;;0.90;;
52708;SDS011;38606;52.986;6.980;2023-03-14T09:38:28;5.95;;;0.98;;
52708;SDS011;38606;52.986;6.980;2023-03-14T09:40:54;8.57;;;1.20;;
52708;SDS011;38606;52.986;6.980;2023-03-14T09:43:22;9.95;;;1.23;;
52708;SDS011;38606;52.986;6.980;2023-03-14T09:45:50;9.07;;;1.25;;
52708;SDS011;38606;52.986;6.980;2023-03-14T09:48:21;8.30;;;1.63;;
52708;SDS011;38606;52.986;6.980;2023-03-14T09:50:54;16.90;;;1.88;;
52708;SDS011;38606;52.986;6.980;2023-03-14T09:53:24;12.07;;;1.48;;
52708;SDS011;38606;52.986;6.980;2023-03-14T09:55:58;14.20;;;1.63;;
52708;SDS011;38606;52.986;6.980;2023-03-14T09:58:24;10.23;;;1.40;;
52708;SDS011;38606;52.986;6.980;2023-03-14T10:00:50;12.05;;;1.70;;
52708;SDS011;38606;52.986;6.980;2023-03-14T10:05:58;13.80;;;1.90;;
52708;SDS011;38606;52.986;6.980;2023-03-14T10:08:24;19.90;;;2.10;;
52708;SDS011;38606;52.986;6.980;2023-03-14T10:10:49;23.05;;;2.58;;
52708;SDS011;38606;52.986;6.980;2023-03-14T10:13:17;12.70;;;1.83;;
52708;SDS011;38606;52.986;6.980;2023-03-14T10:15:53;23.75;;;3.17;;
52708;SDS011;38606;52.986;6.980;2023-03-14T10:18:22;17.88;;;2.53;;
52708;SDS011;38606;52.986;6.980;2023-03-14T10:20:49;20.60;;;2.95;;
52708;SDS011;38606;52.986;6.980;2023-03-14T10:23:27;20.13;;;2.58;;
52708;SDS011;38606;52.986;6.980;2023-03-14T10:26:00;24.98;;;2.67;;
52708;SDS011;38606;52.986;6.980;2023-03-14T10:28:33;28.45;;;2.50;;
52708;SDS011;38606;52.986;6.980;2023-03-14T10:31:04;25.02;;;3.00;;
52708;SDS011;38606;52.986;6.980;2023-03-14T10:33:31;25.02;;;2.67;;
52708;SDS011;38606;52.986;6.980;2023-03-14T10:36:00;28.20;;;2.75;;
52708;SDS011;38606;52.986;6.980;2023-03-14T10:38:32;31.35;;;2.67;;
52708;SDS011;38606;52.986;6.980;2023-03-14T10:41:00;14.15;;;2.55;;
52708;SDS011;38606;52.986;6.980;2023-03-14T10:43:33;18.55;;;2.35;;
52708;SDS011;38606;52.986;6.980;2023-03-14T10:46:17;24.33;;;3.08;;
52708;SDS011;38606;52.986;6.980;2023-03-14T10:48:44;19.02;;;2.55;;
52708;SDS011;38606;52.986;6.980;2023-03-14T10:51:17;16.85;;;2.13;;
52708;SDS011;38606;52.986;6.980;2023-03-14T10:56:28;22.70;;;3.13;;
52708;SDS011;38606;52.986;6.980;2023-03-14T10:59:00;13.23;;;2.17;;
52708;SDS011;38606;52.986;6.980;2023-03-14T11:10:12;16.83;;;2.55;;
52708;SDS011;38606;52.986;6.980;2023-03-14T11:13:00;20.45;;;2.60;;
52708;SDS011;38606;52.986;6.980;2023-03-14T11:21:11;11.10;;;2.17;;
52708;SDS011;38606;52.986;6.980;2023-03-14T11:27:06;17.35;;;2.13;;
52708;SDS011;38606;52.986;6.980;2023-03-14T11:29:55;15.68;;;1.92;;
52708;SDS011;38606;52.986;6.980;2023-03-14T11:34:54;16.65;;;1.90;;
52708;SDS011;38606;52.986;6.980;2023-03-14T11:37:29;10.23;;;2.03;;
52708;SDS011;38606;52.986;6.980;2023-03-14T11:42:42;12.82;;;1.60;;
52708;SDS011;38606;52.986;6.980;2023-03-14T11:48:25;9.60;;;1.73;;
52708;SDS011;38606;52.986;6.980;2023-03-14T11:51:07;8.43;;;1.40;;
52708;SDS011;38606;52.986;6.980;2023-03-14T12:04:45;9.55;;;1.30;;
52708;SDS011;38606;52.986;6.980;2023-03-14T12:07:37;13.82;;;2.35;;
52708;SDS011;38606;52.986;6.980;2023-03-14T12:10:10;7.72;;;1.45;;
52708;SDS011;38606;52.986;6.980;2023-03-14T12:12:35;8.52;;;1.17;;
52708;SDS011;38606;52.986;6.980;2023-03-14T12:15:02;8.25;;;1.73;;
52708;SDS011;38606;52.986;6.980;2023-03-14T12:17:39;4.28;;;0.93;;
52708;SDS011;38606;52.986;6.980;2023-03-14T12:22:47;7.88;;;1.20;;
52708;SDS011;38606;52.986;6.980;2023-03-14T12:25:21;4.87;;;1.27;;
52708;SDS011;38606;52.986;6.980;2023-03-14T12:30:41;7.35;;;1.35;;
52708;SDS011;38606;52.986;6.980;2023-03-14T12:35:39;8.95;;;1.58;;
52708;SDS011;38606;52.986;6.980;2023-03-14T12:38:13;7.90;;;1.30;;
52708;SDS011;38606;52.986;6.980;2023-03-14T12:41:01;10.02;;;1.33;;
52708;SDS011;38606;52.986;6.980;2023-03-14T12:43:36;9.40;;;1.08;;
52708;SDS011;38606;52.986;6.980;2023-03-14T12:51:34;9.55;;;1.05;;
52708;SDS011;38606;52.986;6.980;2023-03-14T12:56:32;9.63;;;1.50;;
52708;SDS011;38606;52.986;6.980;2023-03-14T13:07:32;12.88;;;1.77;;
52708;SDS011;38606;52.986;6.980;2023-03-14T13:15:40;10.68;;;1.65;;
52708;SDS011;38606;52.986;6.980;2023-03-14T13:20:51;15.60;;;2.38;;
52708;SDS011;38606;52.986;6.980;2023-03-14T13:23:24;14.25;;;1.88;;
52708;SDS011;38606;52.986;6.980;2023-03-14T13:25:55;18.27;;;2.28;;
52708;SDS011;38606;52.986;6.980;2023-03-14T13:28:22;10.45;;;2.05;;
52708;SDS011;38606;52.986;6.980;2023-03-14T13:30:48;14.90;;;2.33;;
52708;SDS011;38606;52.986;6.980;2023-03-14T13:33:17;13.07;;;2.00;;
52708;SDS011;38606;52.986;6.980;2023-03-14T13:35:48;10.52;;;1.88;;
52708;SDS011;38606;52.986;6.980;2023-03-14T13:38:23;11.55;;;2.22;;
52708;SDS011;38606;52.986;6.980;2023-03-14T13:40:51;13.93;;;2.28;;
52708;SDS011;38606;52.986;6.980;2023-03-14T13:43:27;8.07;;;1.80;;
52708;SDS011;38606;52.986;6.980;2023-03-14T13:46:21;8.68;;;1.50;;
52708;SDS011;38606;52.986;6.980;2023-03-14T13:48:48;8.90;;;1.33;;
52708;SDS011;38606;52.986;6.980;2023-03-14T13:51:18;8.73;;;1.45;;
52708;SDS011;38606;52.986;6.980;2023-03-14T13:53:49;5.75;;;1.02;;
52708;SDS011;38606;52.986;6.980;2023-03-14T13:56:18;10.23;;;1.95;;
52708;SDS011;38606;52.986;6.980;2023-03-14T13:58:45;8.55;;;1.20;;
52708;SDS011;38606;52.986;6.980;2023-03-14T14:03:45;10.77;;;1.27;;
52708;SDS011;38606;52.986;6.980;2023-03-14T14:06:26;5.07;;;0.98;;
52708;SDS011;38606;52.986;6.980;2023-03-14T14:08:57;6.43;;;1.23;;
52708;SDS011;38606;52.986;6.980;2023-03-14T14:11:40;8.80;;;1.52;;
52708;SDS011;38606;52.986;6.980;2023-03-14T14:14:29;5.68;;;1.45;;
52708;SDS011;38606;52.986;6.980;2023-03-14T14:16:59;5.85;;;1.00;;
52708;SDS011;38606;52.986;6.980;2023-03-14T14:19:29;7.40;;;1.13;;
52708;SDS011;38606;52.986;6.980;2023-03-14T14:21:58;10.98;;;1.40;;
52708;SDS011;38606;52.986;6.980;2023-03-14T14:24:25;8.13;;;1.35;;
52708;SDS011;38606;52.986;6.980;2023-03-14T14:29:35;5.28;;;1.13;;
52708;SDS011;38606;52.986;6.980;2023-03-14T14:34:40;8.43;;;1.77;;
52708;SDS011;38606;52.986;6.980;2023-03-14T14:37:24;5.35;;;1.42;;
52708;SDS011;38606;52.986;6.980;2023-03-14T14:39:53;11.70;;;1.98;;
52708;SDS011;38606;52.986;6.980;2023-03-14T14:42:21;13.10;;;1.50;;
52708;SDS011;38606;52.986;6.980;2023-03-14T14:44:59;11.57;;;1.88;;
52708;SDS011;38606;52.986;6.980;2023-03-14T14:47:28;10.07;;;1.40;;
52708;SDS011;38606;52.986;6.980;2023-03-14T14:49:54;9.30;;;1.48;;
52708;SDS011;38606;52.986;6.980;2023-03-14T14:52:33;6.93;;;1.20;;
52708;SDS011;38606;52.986;6.980;2023-03-14T14:55:39;7.40;;;1.20;;
52708;SDS011;38606;52.986;6.980;2023-03-14T14:57:59;9.05;;;1.60;;
52708;SDS011;38606;52.986;6.980;2023-03-14T15:00:50;10.15;;;1.40;;
52708;SDS011;38606;52.986;6.980;2023-03-14T15:03:37;7.15;;;1.00;;
52708;SDS011;38606;52.986;6.980;2023-03-14T15:06:03;7.70;;;1.30;;
52708;SDS011;38606;52.986;6.980;2023-03-14T15:08:29;5.38;;;1.23;;
52708;SDS011;38606;52.986;6.980;2023-03-14T15:10:55;9.93;;;1.70;;
52708;SDS011;38606;52.986;6.980;2023-03-14T15:13:22;4.40;;;1.13;;
52708;SDS011;38606;52.986;6.980;2023-03-14T15:15:49;8.57;;;1.40;;
52708;SDS011;38606;52.986;6.980;2023-03-14T15:18:21;7.57;;;1.50;;
52708;SDS011;38606;52.986;6.980;2023-03-14T15:20:49;9.70;;;1.65;;
52708;SDS011;38606;52.986;6.980;2023-03-14T15:23:16;6.10;;;1.20;;
52708;SDS011;38606;52.986;6.980;2023-03-14T15:25:43;11.63;;;1.40;;
52708;SDS011;38606;52.986;6.980;2023-03-14T15:30:46;10.32;;;1.50;;
52708;SDS011;38606;52.986;6.980;2023-03-14T15:33:19;11.63;;;1.50;;
52708;SDS011;38606;52.986;6.980;2023-03-14T15:35:46;11.00;;;1.48;;
52708;SDS011;38606;52.986;6.980;2023-03-14T15:38:14;10.07;;;1.55;;
52708;SDS011;38606;52.986;6.980;2023-03-14T15:40:42;10.45;;;2.47;;
52708;SDS011;38606;52.986;6.980;2023-03-14T15:43:08;12.98;;;1.90;;
52708;SDS011;38606;52.986;6.980;2023-03-14T15:45:34;7.85;;;1.30;;
52708;SDS011;38606;52.986;6.980;2023-03-14T15:48:00;14.63;;;1.80;;
52708;SDS011;38606;52.986;6.980;2023-03-14T15:50:26;9.65;;;1.27;;
52708;SDS011;38606;52.986;6.980;2023-03-14T15:52:52;6.57;;;1.63;;
52708;SDS011;38606;52.986;6.980;2023-03-14T15:55:18;13.85;;;2.17;;
52708;SDS011;38606;52.986;6.980;2023-03-14T15:57:44;12.27;;;1.50;;
52708;SDS011;38606;52.986;6.980;2023-03-14T16:00:15;10.00;;;1.45;;
52708;SDS011;38606;52.986;6.980;2023-03-14T16:02:47;9.95;;;1.55;;
52708;SDS011;38606;52.986;6.980;2023-03-14T16:05:13;7.47;;;1.02;;
52708;SDS011;38606;52.986;6.980;2023-03-14T16:07:39;10.63;;;1.38;;
52708;SDS011;38606;52.986;6.980;2023-03-14T16:10:06;10.18;;;1.75;;
52708;SDS011;38606;52.986;6.980;2023-03-14T16:12:33;7.72;;;1.35;;
52708;SDS011;38606;52.986;6.980;2023-03-14T16:14:59;11.18;;;1.38;;